createdAt,value
2023-02-19T00:01:47.814Z,2.40
2023-02-19T00:04:24.898Z,2.47
2023-02-19T00:06:52.447Z,2.70
2023-02-19T00:09:20.514Z,2.30
2023-02-19T00:11:48.240Z,2.58
2023-02-19T00:14:18.673Z,1.83
2023-02-19T00:16:46.659Z,2.15
2023-02-19T00:19:16.989Z,2.30
2023-02-19T00:21:44.695Z,2.00
2023-02-19T00:24:14.382Z,2.13
2023-02-19T00:26:42.928Z,2.00
2023-02-19T00:29:14.759Z,1.80
2023-02-19T00:31:43.355Z,1.88
2023-02-19T00:34:12.064Z,2.33
2023-02-19T00:36:41.124Z,2.00
2023-02-19T00:39:11.813Z,1.58
2023-02-19T00:41:39.562Z,1.70
2023-02-19T00:44:08.266Z,1.90
2023-02-19T00:46:42.186Z,2.10
2023-02-19T00:49:16.520Z,1.65
2023-02-19T00:51:44.160Z,1.90
2023-02-19T00:54:12.856Z,2.20
2023-02-19T00:56:41.205Z,1.80
2023-02-19T00:59:08.926Z,1.80
2023-02-19T01:01:36.518Z,2.20
2023-02-19T01:04:06.551Z,1.90
2023-02-19T01:06:35.648Z,2.10
2023-02-19T01:09:04.890Z,2.97
2023-02-19T01:11:32.706Z,2.17
2023-02-19T01:14:01.332Z,2.10
2023-02-19T01:16:28.979Z,1.83
2023-02-19T01:18:58.045Z,1.90
2023-02-19T01:21:27.729Z,1.75
2023-02-19T01:23:56.492Z,1.67
2023-02-19T01:26:31.503Z,1.70
2023-02-19T01:29:00.489Z,1.50
2023-02-19T01:31:29.337Z,1.50
2023-02-19T01:34:00.350Z,1.50
2023-02-19T01:36:29.535Z,1.60
2023-02-19T01:39:00.473Z,1.50
2023-02-19T01:41:28.049Z,1.92
2023-02-19T01:44:02.629Z,2.17
2023-02-19T01:46:34.881Z,2.37
2023-02-19T01:49:08.231Z,2.90
2023-02-19T01:51:39.691Z,2.97
2023-02-19T01:54:10.132Z,3.38
2023-02-19T01:56:40.818Z,3.35
2023-02-19T01:59:09.396Z,2.85
2023-02-19T02:01:39.303Z,2.40
2023-02-19T02:04:08.689Z,2.50
2023-02-19T02:06:43.239Z,2.10
2023-02-19T02:09:30.024Z,2.05
2023-02-19T02:11:57.631Z,1.85
2023-02-19T02:14:29.072Z,1.75
2023-02-19T02:17:48.790Z,1.60
2023-02-19T02:20:57.583Z,1.90
2023-02-19T02:23:44.446Z,1.50
2023-02-19T02:26:21.715Z,1.60
2023-02-19T02:29:15.079Z,1.52
2023-02-19T02:31:49.807Z,1.70
2023-02-19T02:34:34.178Z,1.52
2023-02-19T02:37:04.322Z,1.73
2023-02-19T02:39:32.895Z,1.55
2023-02-19T02:42:20.627Z,1.50
2023-02-19T02:45:51.165Z,1.63
2023-02-19T02:48:33.178Z,1.52
2023-02-19T02:51:29.017Z,1.88
2023-02-19T02:54:48.700Z,2.10
2023-02-19T02:57:19.470Z,1.70
2023-02-19T02:59:51.914Z,1.88
2023-02-19T03:02:27.435Z,2.08
2023-02-19T03:05:14.626Z,2.00
2023-02-19T03:07:56.003Z,2.00
2023-02-19T03:10:36.282Z,2.10
2023-02-19T03:13:27.094Z,2.00
2023-02-19T03:16:29.969Z,1.90
2023-02-19T03:19:18.236Z,1.60
2023-02-19T03:21:53.942Z,1.60
2023-02-19T03:24:45.888Z,1.60
2023-02-19T03:27:16.081Z,1.60
2023-02-19T03:29:50.988Z,1.80
2023-02-19T03:32:28.656Z,1.60
2023-02-19T03:35:05.742Z,1.60
2023-02-19T03:37:40.025Z,1.55
2023-02-19T03:40:08.441Z,1.50
2023-02-19T03:43:01.167Z,1.70
2023-02-19T03:46:08.496Z,1.52
2023-02-19T03:48:41.995Z,1.67
2023-02-19T03:51:23.149Z,1.60
2023-02-19T03:54:17.316Z,1.48
2023-02-19T03:56:53.764Z,1.40
2023-02-19T03:59:32.867Z,1.48
2023-02-19T04:02:06.601Z,1.58
2023-02-19T04:04:37.384Z,1.70
2023-02-19T04:07:06.020Z,1.40
2023-02-19T04:09:41.571Z,1.60
2023-02-19T04:12:15.591Z,1.70
2023-02-19T04:15:06.642Z,1.60
2023-02-19T04:17:55.752Z,1.70
2023-02-19T04:20:27.696Z,1.60
2023-02-19T04:22:57.036Z,1.60
2023-02-19T04:25:27.243Z,1.65
2023-02-19T04:27:55.031Z,1.60
2023-02-19T04:30:22.713Z,1.80
2023-02-19T04:32:50.212Z,1.50
2023-02-19T04:35:17.823Z,1.73
2023-02-19T04:37:45.300Z,1.73
2023-02-19T04:40:12.955Z,1.70
2023-02-19T04:42:40.476Z,1.85
2023-02-19T04:45:08.313Z,1.80
2023-02-19T04:47:35.814Z,1.70
2023-02-19T04:50:03.989Z,2.67
2023-02-19T04:52:33.297Z,1.90
2023-02-19T04:55:01.064Z,2.35
2023-02-19T04:57:28.616Z,2.20
2023-02-19T04:59:57.344Z,2.70
2023-02-19T05:02:25.189Z,2.28
2023-02-19T05:04:52.854Z,2.75
2023-02-19T05:07:20.404Z,2.40
2023-02-19T05:09:47.983Z,2.22
2023-02-19T05:12:15.468Z,2.30
2023-02-19T05:14:42.931Z,2.40
2023-02-19T05:17:10.666Z,2.10
2023-02-19T05:19:38.213Z,2.30
2023-02-19T05:22:05.874Z,2.45
2023-02-19T05:24:33.503Z,3.03
2023-02-19T05:27:01.043Z,2.90
2023-02-19T05:29:30.975Z,4.78
2023-02-19T05:31:59.018Z,2.95
2023-02-19T05:34:26.598Z,2.78
2023-02-19T05:36:54.295Z,4.00
2023-02-19T05:39:21.998Z,38.25
2023-02-19T05:41:49.839Z,25.38
2023-02-19T05:44:17.330Z,38.00
2023-02-19T05:46:44.944Z,20.10
2023-02-19T05:49:12.595Z,13.90
2023-02-19T05:51:40.233Z,12.55
2023-02-19T05:54:07.868Z,4.95
2023-02-19T05:56:41.281Z,4.32
2023-02-19T05:59:23.436Z,6.93
2023-02-19T06:01:52.790Z,5.15
2023-02-19T06:04:20.473Z,4.85
2023-02-19T06:06:48.796Z,4.22
2023-02-19T06:09:16.589Z,6.88
2023-02-19T06:11:44.861Z,6.50
2023-02-19T06:14:14.114Z,9.48
2023-02-19T06:16:41.764Z,4.70
2023-02-19T06:19:10.021Z,4.75
2023-02-19T06:21:38.051Z,4.25
2023-02-19T06:24:09.701Z,3.80
2023-02-19T06:26:38.207Z,4.35
2023-02-19T06:29:05.696Z,3.63
2023-02-19T06:31:33.557Z,4.20
2023-02-19T06:34:04.840Z,6.82
2023-02-19T06:36:32.453Z,9.38
2023-02-19T06:39:00.835Z,9.32
2023-02-19T06:41:28.441Z,36.72
2023-02-19T06:43:57.981Z,19.13
2023-02-19T06:46:27.931Z,8.85
2023-02-19T06:48:57.374Z,5.25
2023-02-19T06:51:27.245Z,8.55
2023-02-19T06:53:54.779Z,5.40
2023-02-19T06:56:34.817Z,6.43
2023-02-19T06:59:05.241Z,6.63
2023-02-19T07:01:35.146Z,4.93
2023-02-19T07:04:03.643Z,4.78
2023-02-19T07:06:31.763Z,4.65
2023-02-19T07:09:00.032Z,6.35
2023-02-19T07:11:33.818Z,4.78
2023-02-19T07:14:03.224Z,4.40
2023-02-19T07:16:30.952Z,6.25
2023-02-19T07:18:59.546Z,36.88
2023-02-19T07:21:28.076Z,11.52
2023-02-19T07:23:55.839Z,37.15
2023-02-19T07:26:23.950Z,18.73
2023-02-19T07:28:52.344Z,24.38
2023-02-19T07:31:22.446Z,9.93
2023-02-19T07:33:50.465Z,7.07
2023-02-19T07:36:19.487Z,4.95
2023-02-19T07:38:47.556Z,3.25
2023-02-19T07:41:15.439Z,3.13
2023-02-19T07:43:43.206Z,3.10
2023-02-19T07:46:13.229Z,3.00
2023-02-19T07:48:42.696Z,2.60
2023-02-19T07:51:19.029Z,2.92
2023-02-19T07:53:47.979Z,2.85
2023-02-19T07:56:15.763Z,2.30
2023-02-19T07:58:45.370Z,2.22
2023-02-19T08:01:40.224Z,2.60
2023-02-19T08:04:08.077Z,2.38
2023-02-19T08:06:35.591Z,3.10
2023-02-19T08:09:04.503Z,3.00
2023-02-19T08:11:51.176Z,3.08
2023-02-19T08:14:18.916Z,3.30
2023-02-19T08:16:50.888Z,12.73
2023-02-19T08:19:19.411Z,9.77
2023-02-19T08:21:47.227Z,4.40
2023-02-19T08:24:14.783Z,4.72
2023-02-19T08:26:42.343Z,4.50
2023-02-19T08:29:10.205Z,5.97
2023-02-19T08:31:37.921Z,6.00
2023-02-19T08:34:05.608Z,7.05
2023-02-19T08:36:33.158Z,6.88
2023-02-19T08:39:00.971Z,6.97
2023-02-19T08:41:28.593Z,6.80
2023-02-19T08:43:56.386Z,7.47
2023-02-19T08:46:23.947Z,7.57
2023-02-19T08:48:52.196Z,7.70
2023-02-19T08:51:20.149Z,7.75
2023-02-19T08:53:47.868Z,7.72
2023-02-19T08:56:17.495Z,8.70
2023-02-19T08:58:45.647Z,7.75
2023-02-19T09:01:15.831Z,8.57
2023-02-19T09:03:44.146Z,8.63
2023-02-19T09:06:19.822Z,8.63
2023-02-19T09:08:47.477Z,9.57
2023-02-19T09:11:15.315Z,9.00
2023-02-19T09:13:43.712Z,10.18
2023-02-19T09:16:12.283Z,9.63
2023-02-19T09:18:40.199Z,11.63
2023-02-19T09:21:07.711Z,12.27
2023-02-19T09:23:36.636Z,13.05
2023-02-19T09:26:08.768Z,12.73
2023-02-19T09:28:36.554Z,15.95
2023-02-19T09:31:08.979Z,14.63
2023-02-19T09:33:37.245Z,14.57
2023-02-19T09:36:05.127Z,15.20
2023-02-19T09:38:32.696Z,18.17
2023-02-19T09:41:07.744Z,25.98
2023-02-19T09:43:35.754Z,19.30
2023-02-19T09:46:37.871Z,18.33
2023-02-19T09:49:10.987Z,26.00
2023-02-19T09:51:41.309Z,18.77
2023-02-19T09:54:24.747Z,17.05
2023-02-19T09:56:55.577Z,17.65
2023-02-19T09:59:31.797Z,19.58
2023-02-19T10:02:11.778Z,18.17
2023-02-19T10:04:42.343Z,18.10
2023-02-19T10:07:19.385Z,15.52
2023-02-19T10:10:01.172Z,14.20
2023-02-19T10:12:31.353Z,14.70
2023-02-19T10:15:11.508Z,12.77
2023-02-19T10:17:39.044Z,12.32
2023-02-19T10:20:10.261Z,14.80
2023-02-19T10:22:39.007Z,11.18
2023-02-19T10:25:07.288Z,10.80
2023-02-19T10:27:35.018Z,11.10
2023-02-19T10:30:02.927Z,9.18
2023-02-19T10:32:30.941Z,9.30
2023-02-19T10:35:09.664Z,8.48
2023-02-19T10:37:46.706Z,9.70
2023-02-19T10:40:20.312Z,8.45
2023-02-19T10:42:50.302Z,7.93
2023-02-19T10:45:53.030Z,7.13
2023-02-19T10:48:29.027Z,6.07
2023-02-19T10:51:05.036Z,6.10
2023-02-19T10:53:40.279Z,5.55
2023-02-19T10:56:14.373Z,5.40
2023-02-19T10:58:45.031Z,6.40
2023-02-19T11:01:25.625Z,4.22
2023-02-19T11:04:17.989Z,4.20
2023-02-19T11:06:46.574Z,4.15
2023-02-19T11:09:28.347Z,4.20
2023-02-19T11:11:57.608Z,4.03
2023-02-19T11:14:27.006Z,4.53
2023-02-19T11:16:57.047Z,4.78
2023-02-19T11:19:50.674Z,4.60
2023-02-19T11:22:33.860Z,5.07
2023-02-19T11:25:17.811Z,5.00
2023-02-19T11:27:55.304Z,4.32
2023-02-19T11:30:26.047Z,4.82
2023-02-19T11:32:53.587Z,5.00
2023-02-19T11:35:25.215Z,4.80
2023-02-19T11:38:02.025Z,5.60
2023-02-19T11:41:03.412Z,5.15
2023-02-19T11:43:52.619Z,4.85
2023-02-19T11:46:59.057Z,4.63
2023-02-19T11:50:08.976Z,4.68
2023-02-19T11:52:59.714Z,4.28
2023-02-19T11:55:39.655Z,4.60
2023-02-19T11:58:07.166Z,4.70
2023-02-19T12:00:47.883Z,5.22
2023-02-19T12:03:15.546Z,4.50
2023-02-19T12:06:03.508Z,4.60
2023-02-19T12:08:49.885Z,5.15
2023-02-19T12:11:32.258Z,5.07
2023-02-19T12:14:21.142Z,4.57
2023-02-19T12:17:19.906Z,3.72
2023-02-19T12:19:58.748Z,4.00
2023-02-19T12:22:48.851Z,3.53
2023-02-19T12:25:34.660Z,3.03
2023-02-19T12:28:08.187Z,2.88
2023-02-19T12:31:02.989Z,2.70
2023-02-19T12:36:19.296Z,2.60
2023-02-19T12:39:04.926Z,2.42
2023-02-19T12:41:55.429Z,3.00
2023-02-19T12:44:40.687Z,2.55
2023-02-19T12:47:16.362Z,2.70
2023-02-19T12:50:13.513Z,2.47
2023-02-19T12:52:46.349Z,2.50
2023-02-19T12:55:24.330Z,2.58
2023-02-19T12:57:54.767Z,2.55
2023-02-19T13:00:42.585Z,4.13
2023-02-19T13:03:21.316Z,10.50
2023-02-19T13:06:14.302Z,2.00
2023-02-19T13:09:06.341Z,8.10
2023-02-19T13:11:47.968Z,2.17
2023-02-19T13:14:20.027Z,3.22
2023-02-19T13:16:53.659Z,1.58
2023-02-19T13:19:21.254Z,1.40
2023-02-19T13:22:32.019Z,1.45
2023-02-19T13:25:01.976Z,1.40
2023-02-19T13:27:44.866Z,1.20
2023-02-19T13:30:48.873Z,1.30
2023-02-19T13:33:39.982Z,1.30
2023-02-19T13:36:20.343Z,1.42
2023-02-19T13:38:50.030Z,1.50
2023-02-19T13:41:20.676Z,2.00
2023-02-19T13:43:55.555Z,1.58
2023-02-19T13:46:24.693Z,1.60
2023-02-19T13:49:27.799Z,1.50
2023-02-19T13:52:01.176Z,6.18
2023-02-19T13:54:31.264Z,10.57
2023-02-19T13:57:23.597Z,5.50
2023-02-19T13:59:53.259Z,2.33
2023-02-19T14:02:20.954Z,5.45
2023-02-19T14:05:00.308Z,3.72
2023-02-19T14:07:28.055Z,1.88
2023-02-19T14:09:56.207Z,2.28
2023-02-19T14:12:33.572Z,2.55
2023-02-19T14:15:41.570Z,1.75
2023-02-19T14:18:41.303Z,2.30
2023-02-19T14:21:26.135Z,1.52
2023-02-19T14:23:57.519Z,1.65
2023-02-19T14:26:26.798Z,1.98
2023-02-19T14:28:54.856Z,2.10
2023-02-19T14:31:29.232Z,1.95
2023-02-19T14:34:02.070Z,3.55
2023-02-19T14:36:48.945Z,1.30
2023-02-19T14:39:30.313Z,1.85
2023-02-19T14:42:02.000Z,1.60
2023-02-19T14:44:32.888Z,2.08
2023-02-19T14:47:11.768Z,1.67
2023-02-19T14:49:47.983Z,1.13
2023-02-19T14:52:30.497Z,1.30
2023-02-19T14:55:15.443Z,1.90
2023-02-19T14:57:49.219Z,3.00
2023-02-19T15:00:22.501Z,5.32
2023-02-19T15:02:52.457Z,2.80
2023-02-19T15:05:29.544Z,3.17
2023-02-19T15:08:06.583Z,2.85
2023-02-19T15:10:36.241Z,21.55
2023-02-19T15:13:06.699Z,2.17
2023-02-19T15:15:43.206Z,2.08
2023-02-19T15:18:20.932Z,2.58
2023-02-19T15:20:49.471Z,10.18
2023-02-19T15:23:24.883Z,2.72
2023-02-19T15:25:53.158Z,10.65
2023-02-19T15:28:23.737Z,2.25
2023-02-19T15:31:07.448Z,4.80
2023-02-19T15:33:35.417Z,1.60
2023-02-19T15:36:06.861Z,7.78
2023-02-19T15:38:35.017Z,1.90
2023-02-19T15:41:03.112Z,2.10
2023-02-19T15:43:51.218Z,1.98
2023-02-19T15:46:21.659Z,1.70
2023-02-19T15:49:01.871Z,3.25
2023-02-19T15:51:47.640Z,1.88
2023-02-19T15:54:27.126Z,1.63
2023-02-19T15:57:00.589Z,2.50
2023-02-19T15:59:43.319Z,2.13
2023-02-19T16:02:15.564Z,1.60
2023-02-19T16:04:45.091Z,2.70
2023-02-19T16:07:34.829Z,1.50
2023-02-19T16:10:24.427Z,1.73
2023-02-19T16:12:59.729Z,1.70
2023-02-19T16:15:31.476Z,1.25
2023-02-19T16:18:00.357Z,2.38
2023-02-19T16:20:33.732Z,2.40
2023-02-19T16:23:11.441Z,1.95
2023-02-19T16:25:44.120Z,2.50
2023-02-19T16:28:24.077Z,1.80
2023-02-19T16:31:05.217Z,1.65
2023-02-19T16:33:36.438Z,1.60
2023-02-19T16:36:41.501Z,2.25
2023-02-19T16:39:09.479Z,1.60
2023-02-19T16:41:41.160Z,2.00
2023-02-19T16:44:21.108Z,2.33
2023-02-19T16:46:54.955Z,3.50
2023-02-19T16:49:24.445Z,2.05
2023-02-19T16:51:52.477Z,2.08
2023-02-19T16:54:20.389Z,1.60
2023-02-19T16:56:48.192Z,1.80
2023-02-19T16:59:16.064Z,3.40
2023-02-19T17:01:44.029Z,4.10
2023-02-19T17:04:15.662Z,2.80
2023-02-19T17:06:44.448Z,1.73
2023-02-19T17:09:12.124Z,2.03
2023-02-19T17:11:40.126Z,2.47
2023-02-19T17:14:09.296Z,4.20
2023-02-19T17:16:40.621Z,2.88
2023-02-19T17:19:16.910Z,1.60
2023-02-19T17:21:46.599Z,2.40
2023-02-19T17:24:14.747Z,2.53
2023-02-19T17:26:42.548Z,4.78
2023-02-19T17:29:14.407Z,2.80
2023-02-19T17:31:42.329Z,1.80
2023-02-19T17:34:11.209Z,2.00
2023-02-19T17:36:40.437Z,3.28
2023-02-19T17:39:15.129Z,1.90
2023-02-19T17:41:43.462Z,2.92
2023-02-19T17:44:11.599Z,4.00
2023-02-19T17:46:39.680Z,3.03
2023-02-19T17:49:08.409Z,1.98
2023-02-19T17:51:36.468Z,1.80
2023-02-19T17:54:05.200Z,1.40
2023-02-19T17:56:33.737Z,2.38
2023-02-19T17:59:01.664Z,2.20
2023-02-19T18:01:30.929Z,1.85
2023-02-19T18:03:59.059Z,2.03
2023-02-19T18:06:27.595Z,1.80
2023-02-19T18:08:55.639Z,1.52
2023-02-19T18:11:23.996Z,2.28
2023-02-19T18:13:52.654Z,2.00
2023-02-19T18:16:21.420Z,1.60
2023-02-19T18:18:50.678Z,1.73
2023-02-19T18:21:18.869Z,1.30
2023-02-19T18:23:47.580Z,2.35
2023-02-19T18:26:19.641Z,1.77
2023-02-19T18:28:50.569Z,2.47
2023-02-19T18:31:18.469Z,2.13
2023-02-19T18:33:46.394Z,2.08
2023-02-19T18:36:16.022Z,2.58
2023-02-19T18:38:43.763Z,3.40
2023-02-19T18:41:14.469Z,2.17
2023-02-19T18:43:46.280Z,2.03
2023-02-19T18:46:14.565Z,2.72
2023-02-19T18:48:42.936Z,2.38
2023-02-19T18:51:12.172Z,3.03
2023-02-19T18:53:42.944Z,3.10
2023-02-19T18:56:12.990Z,4.28
2023-02-19T18:58:41.373Z,3.97
2023-02-19T19:01:09.664Z,3.20
2023-02-19T19:03:37.726Z,3.90
2023-02-19T19:06:08.288Z,3.20
2023-02-19T19:08:36.054Z,3.22
2023-02-19T19:11:05.268Z,3.60
2023-02-19T19:13:33.177Z,2.42
2023-02-19T19:16:02.239Z,2.60
2023-02-19T19:18:31.287Z,8.73
2023-02-19T19:21:03.532Z,3.70
2023-02-19T19:23:31.707Z,6.18
2023-02-19T19:25:59.452Z,3.30
2023-02-19T19:28:27.608Z,3.50
2023-02-19T19:30:57.216Z,4.88
2023-02-19T19:33:28.154Z,3.05
2023-02-19T19:35:59.130Z,3.92
2023-02-19T19:38:27.482Z,3.63
2023-02-19T19:40:55.054Z,5.53
2023-02-19T19:43:27.174Z,11.60
2023-02-19T19:45:55.644Z,6.40
2023-02-19T19:48:24.676Z,3.08
2023-02-19T19:50:54.494Z,3.80
2023-02-19T19:53:24.338Z,4.32
2023-02-19T19:55:55.181Z,3.08
2023-02-19T19:58:24.834Z,3.38
2023-02-19T20:01:04.367Z,3.88
2023-02-19T20:03:33.839Z,3.40
2023-02-19T20:06:02.845Z,3.67
2023-02-19T20:08:31.233Z,3.97
2023-02-19T20:10:59.297Z,4.15
2023-02-19T20:13:30.428Z,3.13
2023-02-19T20:15:59.518Z,3.38
2023-02-19T20:18:28.602Z,3.22
2023-02-19T20:21:05.671Z,3.30
2023-02-19T20:23:33.536Z,3.28
2023-02-19T20:26:02.102Z,3.30
2023-02-19T20:28:29.909Z,3.38
2023-02-19T20:30:57.765Z,3.70
2023-02-19T20:33:26.221Z,3.33
2023-02-19T20:35:58.546Z,3.58
2023-02-19T20:38:26.674Z,3.67
2023-02-19T20:40:59.864Z,3.10
2023-02-19T20:43:28.609Z,4.25
2023-02-19T20:45:56.489Z,3.70
2023-02-19T20:48:24.298Z,3.75
2023-02-19T20:51:09.953Z,3.97
2023-02-19T20:53:38.702Z,4.07
2023-02-19T20:56:07.625Z,3.90
2023-02-19T20:58:35.707Z,4.57
2023-02-19T21:01:03.851Z,4.45
2023-02-19T21:03:31.485Z,4.40
2023-02-19T21:05:59.295Z,4.40
2023-02-19T21:08:27.074Z,4.60
2023-02-19T21:10:57.712Z,4.63
2023-02-19T21:13:25.407Z,4.60
2023-02-19T21:15:52.949Z,4.32
2023-02-19T21:18:21.059Z,4.75
2023-02-19T21:20:48.793Z,4.95
2023-02-19T21:23:17.043Z,4.30
2023-02-19T21:25:44.566Z,4.47
2023-02-19T21:28:12.501Z,5.03
2023-02-19T21:30:40.188Z,4.60
2023-02-19T21:33:07.827Z,5.57
2023-02-19T21:35:35.621Z,5.07
2023-02-19T21:38:03.601Z,4.72
2023-02-19T21:40:32.852Z,3.97
2023-02-19T21:43:00.513Z,4.40
2023-02-19T21:45:28.377Z,3.88
2023-02-19T21:47:55.925Z,3.30
2023-02-19T21:50:23.614Z,3.20
2023-02-19T21:52:51.201Z,3.70
2023-02-19T21:55:18.849Z,3.35
2023-02-19T21:57:46.653Z,3.70
2023-02-19T22:00:14.811Z,3.78
2023-02-19T22:02:43.095Z,4.00
2023-02-19T22:05:10.872Z,4.00
2023-02-19T22:07:38.642Z,3.40
2023-02-19T22:10:08.961Z,3.03
2023-02-19T22:12:40.205Z,2.63
2023-02-19T22:15:08.374Z,3.83
2023-02-19T22:17:36.227Z,2.70
2023-02-19T22:20:04.413Z,3.47
2023-02-19T22:22:32.271Z,3.25
2023-02-19T22:24:59.836Z,3.20
2023-02-19T22:27:28.974Z,2.60
2023-02-19T22:29:58.562Z,2.53
2023-02-19T22:32:26.267Z,2.58
2023-02-19T22:34:54.021Z,2.65
2023-02-19T22:37:21.542Z,2.83
2023-02-19T22:39:49.083Z,2.92
2023-02-19T22:42:16.797Z,2.80
2023-02-19T22:44:44.546Z,2.95
2023-02-19T22:47:12.066Z,2.70
2023-02-19T22:49:43.742Z,2.72
2023-02-19T22:52:11.675Z,2.80
2023-02-19T22:54:39.733Z,2.78
2023-02-19T22:57:07.297Z,3.10
2023-02-19T22:59:35.003Z,2.80
2023-02-19T23:02:02.582Z,2.53
2023-02-19T23:04:31.794Z,2.58
2023-02-19T23:06:59.396Z,2.60
2023-02-19T23:09:28.945Z,2.60
2023-02-19T23:12:05.886Z,2.80
2023-02-19T23:14:33.546Z,3.33
2023-02-19T23:17:01.193Z,2.92
2023-02-19T23:19:29.424Z,2.78
2023-02-19T23:21:57.486Z,2.88
2023-02-19T23:24:25.177Z,2.92
2023-02-19T23:26:53.580Z,2.50
2023-02-19T23:29:25.338Z,2.53
2023-02-19T23:31:54.216Z,2.60
2023-02-19T23:34:22.181Z,2.60
2023-02-19T23:36:50.807Z,2.40
2023-02-19T23:39:21.560Z,2.88
2023-02-19T23:41:52.686Z,2.83
2023-02-19T23:44:21.679Z,3.03
2023-02-19T23:46:50.489Z,2.60
2023-02-19T23:49:19.232Z,2.72
2023-02-19T23:51:46.832Z,2.88
2023-02-19T23:54:14.671Z,2.88
2023-02-19T23:56:42.201Z,2.88
2023-02-19T23:59:09.718Z,2.58
